Time;durP1;ratioP1;P1;durP2;ratioP2;P2;SDS_P1;SDS_P2;PMS_P1;PMS_P2;Temp;Humidity;BMP_temperature;BMP_pressure;BME280_temperature;BME280_humidity;BME280_pressure;Samples;Min_cycle;Max_cycle;Signal;HPM_P1;HPM_P2
2022/07/27 00:01:16;;;;;;;0.40;0.32;;;23.30;55.80;;;;;;6192709;28;20442;-68
2022/07/27 00:04:18;;;;;;;0.40;0.40;;;23.30;55.80;;;;;;6168851;28;20030;-67
2022/07/27 00:07:19;;;;;;;0.70;0.40;;;23.30;55.80;;;;;;6176333;28;20030;-68
2022/07/27 00:10:19;;;;;;;0.50;0.30;;;23.30;55.80;;;;;;6193080;28;20033;-67
2022/07/27 00:13:20;;;;;;;0.50;0.50;;;23.30;55.80;;;;;;6177053;28;20042;-68
2022/07/27 00:16:21;;;;;;;0.57;0.50;;;23.30;55.80;;;;;;6168457;28;20127;-68
2022/07/27 00:19:22;;;;;;;0.50;0.50;;;23.30;56.50;;;;;;6191815;28;20085;-68
2022/07/27 00:22:23;;;;;;;0.60;0.50;;;23.30;55.80;;;;;;6186216;28;20066;-67
2022/07/27 00:25:28;;;;;;;0.47;0.47;;;23.30;55.80;;;;;;6167751;28;20037;-68
2022/07/27 00:28:28;;;;;;;0.60;0.50;;;23.30;55.80;;;;;;6183215;28;20027;-68
2022/07/27 00:31:29;;;;;;;0.40;0.40;;;23.30;55.80;;;;;;6191767;28;20509;-68
2022/07/27 00:34:30;;;;;;;0.47;0.40;;;23.30;55.80;;;;;;6169950;28;20065;-68
2022/07/27 00:37:30;;;;;;;1.23;0.52;;;23.30;55.80;;;;;;6173145;28;20029;-67
2022/07/27 00:40:31;;;;;;;0.50;0.40;;;23.30;55.80;;;;;;6181419;28;20106;-67
2022/07/27 00:43:32;;;;;;;1.20;0.40;;;23.30;55.80;;;;;;6180859;28;20034;-68
2022/07/27 00:46:33;;;;;;;0.38;0.32;;;23.30;55.80;;;;;;6192138;28;20113;-68
2022/07/27 00:49:34;;;;;;;0.40;0.40;;;23.30;55.80;;;;;;6171098;28;20089;-67
2022/07/27 00:52:36;;;;;;;0.77;0.40;;;23.30;55.80;;;;;;6171991;28;20030;-68
2022/07/27 00:55:38;;;;;;;0.38;0.38;;;23.30;55.80;;;;;;6191472;28;20432;-67
2022/07/27 00:58:39;;;;;;;0.55;0.55;;;23.30;55.80;;;;;;6191714;28;20440;-68
2022/07/27 01:01:40;;;;;;;0.57;0.50;;;23.30;55.80;;;;;;6181731;28;20037;-68
2022/07/27 01:04:41;;;;;;;0.45;0.45;;;23.30;55.80;;;;;;6187256;28;20452;-68
2022/07/27 01:07:42;;;;;;;0.50;0.50;;;23.30;55.80;;;;;;6188564;28;20038;-68
2022/07/27 01:10:43;;;;;;;0.63;0.40;;;23.30;55.80;;;;;;6167279;28;20359;-68
2022/07/27 01:13:43;;;;;;;0.40;0.40;;;23.30;55.80;;;;;;6177764;28;20026;-68
2022/07/27 01:16:44;;;;;;;0.60;0.50;;;23.30;55.90;;;;;;6191438;28;20022;-68
2022/07/27 01:19:45;;;;;;;0.60;0.47;;;23.30;55.90;;;;;;6173079;28;20022;-68
2022/07/27 01:22:46;;;;;;;0.40;0.40;;;23.30;55.80;;;;;;6169017;28;20490;-67
2022/07/27 01:25:46;;;;;;;0.60;0.40;;;23.30;55.80;;;;;;6190923;28;20022;-68
2022/07/27 01:28:47;;;;;;;0.63;0.47;;;23.30;55.80;;;;;;6182413;28;20058;-67
2022/07/27 01:31:47;;;;;;;1.10;0.50;;;23.30;55.80;;;;;;6167256;28;20446;-68
2022/07/27 01:34:48;;;;;;;0.40;0.40;;;23.30;55.80;;;;;;6183610;28;20031;-67
2022/07/27 01:37:49;;;;;;;0.30;0.30;;;23.30;55.80;;;;;;6191558;28;20062;-68
2022/07/27 01:40:51;;;;;;;0.65;0.60;;;23.30;55.80;;;;;;6189668;28;20030;-67
2022/07/27 01:43:52;;;;;;;0.80;0.50;;;23.30;55.80;;;;;;6187127;28;20066;-68
2022/07/27 01:46:53;;;;;;;1.05;0.55;;;23.30;55.80;;;;;;6171623;28;20030;-67
2022/07/27 01:49:53;;;;;;;1.85;0.50;;;23.30;55.80;;;;;;6194572;28;20050;-68
2022/07/27 01:52:54;;;;;;;0.75;0.45;;;23.30;55.80;;;;;;6196255;28;20470;-68
2022/07/27 01:55:54;;;;;;;0.40;0.40;;;23.30;55.80;;;;;;6194100;28;20093;-68
2022/07/27 01:58:55;;;;;;;0.65;0.50;;;23.30;55.80;;;;;;6195883;28;20042;-67
2022/07/27 02:01:55;;;;;;;0.55;0.40;;;23.30;55.90;;;;;;6196083;28;20035;-68
2022/07/27 02:04:56;;;;;;;0.75;0.50;;;23.30;55.80;;;;;;6182259;28;20038;-68
2022/07/27 02:07:57;;;;;;;0.60;0.50;;;23.30;55.90;;;;;;6171457;28;20490;-68
2022/07/27 02:14:16;;;;;;;0.45;0.45;;;23.30;55.80;;;;;;6188693;28;20019;-68
2022/07/27 02:17:17;;;;;;;0.57;0.47;;;23.30;55.90;;;;;;6171369;28;20042;-67
2022/07/27 02:20:20;;;;;;;0.50;0.50;;;23.30;55.90;;;;;;6185213;28;20081;-68
2022/07/27 02:23:21;;;;;;;0.40;0.40;;;23.30;55.90;;;;;;6195176;28;20566;-68
2022/07/27 02:26:21;;;;;;;0.32;0.30;;;23.30;55.90;;;;;;6172547;28;20058;-67
2022/07/27 02:29:22;;;;;;;0.50;0.47;;;23.30;55.90;;;;;;6176391;28;20525;-67
2022/07/27 02:32:23;;;;;;;0.50;0.50;;;23.30;55.90;;;;;;6194867;28;20026;-67
2022/07/27 02:35:23;;;;;;;0.35;0.35;;;23.30;55.90;;;;;;6182016;28;20474;-68
2022/07/27 02:38:24;;;;;;;0.50;0.40;;;23.30;55.90;;;;;;6170961;28;20029;-68
2022/07/27 02:41:25;;;;;;;0.65;0.40;;;23.30;55.90;;;;;;6173193;28;20060;-67
2022/07/27 02:44:26;;;;;;;0.68;0.40;;;23.30;55.90;;;;;;6174646;28;20027;-68
2022/07/27 02:47:26;;;;;;;0.65;0.40;;;23.30;55.90;;;;;;6194677;28;20528;-67
2022/07/27 02:50:27;;;;;;;0.40;0.40;;;23.30;55.90;;;;;;6183042;28;20061;-68
2022/07/27 02:53:28;;;;;;;0.60;0.47;;;23.30;55.90;;;;;;6171571;28;20049;-68
2022/07/27 02:56:29;;;;;;;0.60;0.43;;;23.30;55.90;;;;;;6194530;28;20529;-68
2022/07/27 02:59:32;;;;;;;0.20;0.20;;;23.30;55.90;;;;;;6191975;28;20037;-68
2022/07/27 03:02:33;;;;;;;0.35;0.30;;;23.30;55.90;;;;;;6170768;28;20034;-68
2022/07/27 03:05:34;;;;;;;0.70;0.40;;;23.30;55.90;;;;;;6180708;28;20101;-67
2022/07/27 03:08:35;;;;;;;0.57;0.40;;;23.30;55.90;;;;;;6194229;28;20030;-68
2022/07/27 03:11:36;;;;;;;0.30;0.30;;;23.30;55.90;;;;;;6177120;28;20026;-68
2022/07/27 03:14:37;;;;;;;0.30;0.30;;;23.30;55.90;;;;;;6171555;28;20105;-68
2022/07/27 03:17:37;;;;;;;0.50;0.40;;;23.30;55.90;;;;;;6194486;28;20049;-68
2022/07/27 03:20:38;;;;;;;0.90;0.60;;;23.30;55.90;;;;;;6184896;28;20026;-68
2022/07/27 03:23:39;;;;;;;0.60;0.40;;;23.30;55.90;;;;;;6170380;28;20047;-68
2022/07/27 03:26:39;;;;;;;0.40;0.40;;;23.30;55.90;;;;;;6192769;28;20531;-68
2022/07/27 03:29:40;;;;;;;0.95;0.45;;;23.30;55.90;;;;;;6193843;28;20022;-68
2022/07/27 03:32:41;;;;;;;0.60;0.50;;;23.30;55.90;;;;;;6169348;28;20027;-68
2022/07/27 03:35:41;;;;;;;0.45;0.40;;;23.30;55.90;;;;;;6177029;28;20022;-68
2022/07/27 03:38:42;;;;;;;0.40;0.40;;;23.30;55.90;;;;;;6194127;28;20030;-68
2022/07/27 03:41:42;;;;;;;0.50;0.40;;;23.30;55.90;;;;;;6187667;28;20390;-68
2022/07/27 03:44:43;;;;;;;0.50;0.40;;;23.30;55.90;;;;;;6193406;28;20022;-67
2022/07/27 03:47:44;;;;;;;0.43;0.43;;;23.30;55.90;;;;;;6170885;28;20031;-68
2022/07/27 03:50:45;;;;;;;0.93;0.50;;;23.30;55.90;;;;;;6174722;28;20039;-68
2022/07/27 03:53:45;;;;;;;0.43;0.43;;;23.30;55.90;;;;;;6193533;28;20456;-68
2022/07/27 03:56:46;;;;;;;0.30;0.30;;;23.30;55.90;;;;;;6175293;28;20073;-68
2022/07/27 03:59:47;;;;;;;0.95;0.50;;;23.30;55.90;;;;;;6193243;28;20512;-68
2022/07/27 04:02:48;;;;;;;0.47;0.35;;;23.30;56.00;;;;;;6172041;28;20046;-68
2022/07/27 04:05:48;;;;;;;0.30;0.30;;;23.30;55.90;;;;;;6172402;28;20025;-68
2022/07/27 04:08:49;;;;;;;0.57;0.47;;;23.30;55.90;;;;;;6192967;28;20026;-68
2022/07/27 04:11:50;;;;;;;0.40;0.40;;;23.30;56.00;;;;;;6181106;28;20097;-68
2022/07/27 04:14:50;;;;;;;0.82;0.50;;;23.30;55.90;;;;;;6168545;28;20023;-68
2022/07/27 04:17:52;;;;;;;0.40;0.40;;;23.30;55.90;;;;;;6187812;28;20026;-67
2022/07/27 04:20:52;;;;;;;0.45;0.30;;;23.30;56.00;;;;;;6189274;28;20505;-67
2022/07/27 04:23:53;;;;;;;0.55;0.43;;;23.30;55.90;;;;;;6168255;28;20113;-68
2022/07/27 04:26:54;;;;;;;0.70;0.50;;;23.30;55.90;;;;;;6192553;28;20022;-68
2022/07/27 04:29:54;;;;;;;0.40;0.40;;;23.30;55.90;;;;;;6192708;28;20109;-68
2022/07/27 04:32:55;;;;;;;0.75;0.45;;;23.30;56.00;;;;;;6174474;28;20494;-68
2022/07/27 04:35:55;;;;;;;0.50;0.40;;;23.30;56.00;;;;;;6169071;28;20026;-67
2022/07/27 04:38:56;;;;;;;0.43;0.40;;;23.30;56.00;;;;;;6193133;28;20027;-68
2022/07/27 04:41:57;;;;;;;0.50;0.40;;;23.30;56.00;;;;;;6178494;28;20038;-68
2022/07/27 04:44:58;;;;;;;0.40;0.40;;;23.30;55.90;;;;;;6191923;28;20389;-67
2022/07/27 04:48:03;;;;;;;0.40;0.40;;;23.30;55.90;;;;;;6175802;28;20442;-67
2022/07/27 04:51:04;;;;;;;;;;;23.30;56.00;;;;;;6168728;28;20106;-68
2022/07/27 04:54:04;;;;;;;0.43;0.43;;;23.30;55.90;;;;;;6192071;28;20261;-68
2022/07/27 04:57:05;;;;;;;0.38;0.38;;;23.30;56.00;;;;;;6191911;28;20022;-68
2022/07/27 05:00:34;;;;;;;0.38;0.38;;;23.30;56.00;;;;;;6192002;28;20022;-68
2022/07/27 05:03:34;;;;;;;0.40;0.40;;;23.30;55.90;;;;;;6191182;28;20555;-67
2022/07/27 05:06:35;;;;;;;0.65;0.30;;;23.30;56.00;;;;;;6191785;28;20030;-68
2022/07/27 05:09:36;;;;;;;0.52;0.40;;;23.30;56.00;;;;;;6191822;28;20031;-68
2022/07/27 05:12:37;;;;;;;0.50;0.40;;;23.30;56.00;;;;;;6181756;28;20398;-68
2022/07/27 05:15:38;;;;;;;0.50;0.50;;;23.30;55.90;;;;;;6167519;28;20676;-68
2022/07/27 05:18:39;;;;;;;0.47;0.40;;;23.30;55.90;;;;;;6185531;28;20086;-68
2022/07/27 05:21:40;;;;;;;0.43;0.43;;;23.30;55.90;;;;;;6190378;28;20473;-68
2022/07/27 05:24:41;;;;;;;0.30;0.22;;;23.30;56.00;;;;;;6189814;28;20256;-68
2022/07/27 05:27:42;;;;;;;0.45;0.40;;;23.30;56.00;;;;;;6187931;28;20030;-68
2022/07/27 05:30:42;;;;;;;0.45;0.40;;;23.30;56.00;;;;;;6190609;28;20109;-68
2022/07/27 05:33:44;;;;;;;0.40;0.40;;;23.30;56.00;;;;;;6174742;28;20023;-67
2022/07/27 05:36:44;;;;;;;0.30;0.30;;;23.30;56.00;;;;;;6167115;28;20501;-68
2022/07/27 05:39:45;;;;;;;0.30;0.30;;;23.30;55.90;;;;;;6186199;28;20073;-68
2022/07/27 05:42:46;;;;;;;0.35;0.32;;;23.30;56.00;;;;;;6174131;28;20370;-67
2022/07/27 05:45:46;;;;;;;0.60;0.43;;;23.30;56.00;;;;;;6190807;28;20429;-68
2022/07/27 05:48:47;;;;;;;0.40;0.30;;;23.30;56.00;;;;;;6176087;28;20041;-67
2022/07/27 05:51:48;;;;;;;0.30;0.30;;;23.30;56.00;;;;;;6166666;28;20118;-68
2022/07/27 05:54:49;;;;;;;0.40;0.30;;;23.30;56.00;;;;;;6177007;28;20038;-68
2022/07/27 05:57:50;;;;;;;0.55;0.45;;;23.30;56.00;;;;;;6182412;28;20486;-69
2022/07/27 06:00:50;;;;;;;0.38;0.38;;;23.30;56.00;;;;;;6182170;28;20054;-68
2022/07/27 06:03:51;;;;;;;0.30;0.30;;;23.30;56.00;;;;;;6192058;28;20088;-67
2022/07/27 06:10:11;;;;;;;0.85;0.40;;;23.40;56.70;;;;;;6192148;28;20026;-67
2022/07/27 06:13:12;;;;;;;4.03;0.43;;;23.30;56.60;;;;;;6185263;28;20029;-67
2022/07/27 06:16:13;;;;;;;3.22;0.80;;;23.30;56.50;;;;;;6192053;28;20056;-67
2022/07/27 06:19:13;;;;;;;5.43;0.88;;;23.30;55.50;;;;;;6178567;28;20030;-67
2022/07/27 06:22:14;;;;;;;2.30;0.70;;;23.30;54.90;;;;;;6168196;28;20069;-66
2022/07/27 06:25:16;;;;;;;3.72;0.98;;;23.30;54.60;;;;;;6190029;28;20474;-67
2022/07/27 06:28:18;;;;;;;6.10;1.00;;;23.30;54.50;;;;;;6188418;28;20034;-67
2022/07/27 06:31:18;;;;;;;3.22;0.73;;;23.30;54.40;;;;;;6172452;28;20488;-67
2022/07/27 06:34:19;;;;;;;3.92;1.00;;;23.30;54.20;;;;;;6185205;28;20018;-67
2022/07/27 06:37:19;;;;;;;2.00;0.80;;;23.30;54.20;;;;;;6196370;28;20042;-67
2022/07/27 06:40:20;;;;;;;4.18;1.05;;;23.30;54.30;;;;;;6176320;28;20041;-67
2022/07/27 06:43:23;;;;;;;2.28;0.93;;;23.30;54.50;;;;;;6176029;28;20531;-67
2022/07/27 06:46:23;;;;;;;2.35;0.70;;;23.30;54.70;;;;;;6196112;28;20026;-67
2022/07/27 06:49:24;;;;;;;1.92;0.70;;;23.30;54.90;;;;;;6195467;28;20137;-67
2022/07/27 06:52:25;;;;;;;2.83;0.70;;;23.30;54.90;;;;;;6196073;28;20030;-67
2022/07/27 06:55:25;;;;;;;0.93;0.52;;;23.30;55.00;;;;;;6193670;28;20023;-67
2022/07/27 06:58:26;;;;;;;1.40;0.57;;;23.30;55.00;;;;;;6195874;28;20153;-67
2022/07/27 07:01:26;;;;;;;3.85;0.60;;;23.30;55.10;;;;;;6195724;28;20027;-67
2022/07/27 07:04:27;;;;;;;3.53;0.90;;;23.30;54.90;;;;;;6195749;28;20030;-67
2022/07/27 07:07:28;;;;;;;3.67;0.82;;;23.30;54.40;;;;;;6190099;28;20398;-68
2022/07/27 07:10:28;;;;;;;3.03;0.70;;;23.30;54.40;;;;;;6175942;28;20394;-66
2022/07/27 07:13:29;;;;;;;2.75;0.75;;;23.30;56.60;;;;;;6172579;28;20470;-67
2022/07/27 07:16:30;;;;;;;2.55;0.88;;;23.40;55.90;;;;;;6195624;28;20030;-67
2022/07/27 07:19:30;;;;;;;5.15;0.98;;;23.40;55.50;;;;;;6188631;28;20027;-67
2022/07/27 07:22:33;;;;;;;1.42;0.65;;;23.40;55.80;;;;;;6194980;28;20132;-67
2022/07/27 07:25:34;;;;;;;3.83;0.77;;;23.30;55.60;;;;;;6192801;28;20096;-67
2022/07/27 07:28:35;;;;;;;3.17;0.60;;;23.40;55.70;;;;;;6184592;28;20519;-67
2022/07/27 07:31:36;;;;;;;1.75;0.80;;;23.30;55.70;;;;;;6190008;28;20371;-67
2022/07/27 07:34:37;;;;;;;1.23;0.60;;;23.30;55.70;;;;;;6180732;28;20025;-67
2022/07/27 07:37:37;;;;;;;1.55;0.68;;;23.30;55.70;;;;;;6194639;28;20022;-67
2022/07/27 07:40:38;;;;;;;0.50;0.40;;;23.30;55.80;;;;;;6191310;28;20031;-67
2022/07/27 07:43:40;;;;;;;1.35;0.52;;;23.30;55.80;;;;;;6194402;28;20041;-67
2022/07/27 07:46:41;;;;;;;0.98;0.50;;;23.30;55.80;;;;;;6172481;28;20038;-67
2022/07/27 07:49:42;;;;;;;3.00;0.60;;;23.30;55.90;;;;;;6183503;28;20054;-68
2022/07/27 07:52:43;;;;;;;0.63;0.40;;;23.30;55.80;;;;;;6194984;28;20037;-67
2022/07/27 07:55:43;;;;;;;1.02;0.60;;;23.30;55.80;;;;;;6194297;28;20034;-67
2022/07/27 07:58:44;;;;;;;0.63;0.35;;;23.30;55.80;;;;;;6194697;28;20030;-67
2022/07/27 08:01:45;;;;;;;0.95;0.40;;;23.30;55.90;;;;;;6194007;28;20109;-67
2022/07/27 08:04:46;;;;;;;0.80;0.47;;;23.30;55.90;;;;;;6190115;28;20026;-68
2022/07/27 08:07:48;;;;;;;1.42;0.65;;;23.30;56.50;;;;;;6170708;28;20085;-68
2022/07/27 08:10:48;;;;;;;1.50;0.40;;;23.40;55.90;;;;;;6182161;28;20125;-67
2022/07/27 08:13:49;;;;;;;0.50;0.30;;;23.40;55.90;;;;;;6193477;28;20089;-67
2022/07/27 08:16:50;;;;;;;0.52;0.50;;;23.30;55.90;;;;;;6193874;28;20474;-67
2022/07/27 08:19:51;;;;;;;0.85;0.50;;;23.40;55.90;;;;;;6194246;28;20080;-68
2022/07/27 08:22:51;;;;;;;0.50;0.47;;;23.40;56.00;;;;;;6193535;28;20132;-67
2022/07/27 08:25:53;;;;;;;0.40;0.40;;;23.40;55.90;;;;;;6183198;28;20109;-68
2022/07/27 08:28:53;;;;;;;0.70;0.45;;;23.40;55.90;;;;;;6169823;28;20161;-68
2022/07/27 08:31:54;;;;;;;0.85;0.60;;;23.40;55.90;;;;;;6187771;28;20497;-67
2022/07/27 08:34:55;;;;;;;0.65;0.40;;;23.30;55.90;;;;;;6192038;28;20019;-67
2022/07/27 08:37:56;;;;;;;1.02;0.40;;;23.40;55.90;;;;;;6169381;28;20101;-67
2022/07/27 08:41:00;;;;;;;0.57;0.50;;;23.40;56.00;;;;;;6174336;28;20069;-67
2022/07/27 08:44:02;;;;;;;0.65;0.47;;;23.40;56.00;;;;;;6184232;28;20252;-67
2022/07/27 08:47:03;;;;;;;0.40;0.30;;;23.40;56.00;;;;;;6186121;28;20115;-67
2022/07/27 08:50:04;;;;;;;0.45;0.35;;;23.40;56.00;;;;;;6192517;28;20064;-68
2022/07/27 08:53:10;;;;;;;0.50;0.40;;;23.40;56.00;;;;;;6193254;28;20031;-68
2022/07/27 08:56:11;;;;;;;3.40;0.40;;;23.40;56.20;;;;;;6192539;28;20034;-67
2022/07/27 08:59:12;;;;;;;1.27;0.50;;;23.40;56.10;;;;;;6192839;28;20081;-67
2022/07/27 09:02:14;;;;;;;1.40;0.60;;;23.40;56.00;;;;;;6193162;28;20023;-67
2022/07/27 09:05:15;;;;;;;1.15;0.32;;;23.40;56.00;;;;;;6193287;28;20034;-67
2022/07/27 09:08:27;;;;;;;0.70;0.50;;;23.40;55.90;;;;;;6151610;28;20045;-67
2022/07/27 09:11:28;;;;;;;0.60;0.40;;;23.40;56.00;;;;;;6177987;28;20053;-67
2022/07/27 09:14:30;;;;;;;0.55;0.40;;;23.40;56.00;;;;;;6193085;28;20030;-67
2022/07/27 09:17:31;;;;;;;0.70;0.50;;;23.40;56.00;;;;;;6175948;28;20486;-67
2022/07/27 09:20:32;;;;;;;0.32;0.30;;;23.40;56.00;;;;;;6169365;28;20027;-68
2022/07/27 09:23:32;;;;;;;0.65;0.50;;;23.40;56.00;;;;;;6192225;28;20125;-68
2022/07/27 09:26:34;;;;;;;0.52;0.40;;;23.40;56.00;;;;;;6192017;28;20486;-68
2022/07/27 09:29:35;;;;;;;0.57;0.47;;;23.40;56.00;;;;;;6192664;28;20468;-67
2022/07/27 09:32:37;;;;;;;1.00;0.40;;;23.40;56.00;;;;;;6193252;28;20375;-68
2022/07/27 09:35:38;;;;;;;0.52;0.50;;;23.40;56.00;;;;;;6192691;28;20492;-68
2022/07/27 09:38:52;;;;;;;0.35;0.35;;;23.50;56.10;;;;;;6169585;28;20501;-68
2022/07/27 09:41:53;;;;;;;0.57;0.35;;;23.50;56.10;;;;;;6181595;28;20035;-67
2022/07/27 09:44:53;;;;;;;0.80;0.30;;;23.50;56.10;;;;;;6168457;28;20073;-67
2022/07/27 09:48:11;;;;;;;0.70;0.60;;;23.40;55.90;;;;;;6184585;28;20105;-67
2022/07/27 09:51:11;;;;;;;0.50;0.38;;;23.40;56.00;;;;;;6186534;28;20569;-67
2022/07/27 09:54:12;;;;;;;0.43;0.30;;;23.40;56.00;;;;;;6175453;28;20027;-68
2022/07/27 09:57:13;;;;;;;0.38;0.38;;;23.40;56.00;;;;;;6180714;28;20036;-68
2022/07/27 10:00:14;;;;;;;0.65;0.40;;;23.40;56.00;;;;;;6192284;28;20058;-67
2022/07/27 10:03:15;;;;;;;0.57;0.40;;;23.40;56.00;;;;;;6176732;28;20420;-67
2022/07/27 10:06:16;;;;;;;0.57;0.50;;;23.40;56.00;;;;;;6173355;28;20084;-68
2022/07/27 10:09:18;;;;;;;0.45;0.40;;;23.40;56.00;;;;;;6196989;28;20065;-67
2022/07/27 10:12:19;;;;;;;0.50;0.47;;;23.40;56.10;;;;;;6189261;28;20027;-68
2022/07/27 10:15:20;;;;;;;0.60;0.40;;;23.40;56.10;;;;;;6172529;28;20039;-68
2022/07/27 10:18:49;;;;;;;1.33;0.50;;;23.40;56.10;;;;;;6187761;28;20058;-67
2022/07/27 10:21:49;;;;;;;0.45;0.40;;;23.40;56.00;;;;;;6193905;28;20392;-67
2022/07/27 10:24:59;;;;;;;0.40;0.30;;;23.40;56.10;;;;;;6172287;28;20034;-67
2022/07/27 10:28:16;;;;;;;0.95;0.50;;;23.40;56.10;;;;;;6183184;28;20036;-67
2022/07/27 10:31:19;;;;;;;0.40;0.40;;;23.40;56.10;;;;;;6196276;28;20046;-67
2022/07/27 10:34:33;;;;;;;0.40;0.30;;;23.40;56.10;;;;;;6175393;28;20107;-67
2022/07/27 10:37:34;;;;;;;0.35;0.35;;;23.40;56.10;;;;;;6178957;28;20027;-67
2022/07/27 10:40:34;;;;;;;1.20;0.57;;;23.40;56.10;;;;;;6184625;28;20030;-67
2022/07/27 10:43:35;;;;;;;0.40;0.30;;;23.40;56.10;;;;;;6185947;28;20035;-67
2022/07/27 10:46:50;;;;;;;0.63;0.40;;;23.40;56.10;;;;;;6196225;28;20545;-67
2022/07/27 10:50:16;;;;;;;0.30;0.30;;;23.40;56.20;;;;;;6187159;28;20046;-68
2022/07/27 10:53:33;;;;;;;0.43;0.43;;;23.40;56.10;;;;;;6195995;28;20022;-67
2022/07/27 10:56:48;;;;;;;0.28;0.22;;;23.40;56.10;;;;;;6171744;28;20030;-68
2022/07/27 10:59:49;;;;;;;0.50;0.30;;;23.40;56.10;;;;;;6193336;28;20049;-67
2022/07/27 11:02:50;;;;;;;0.60;0.40;;;23.40;56.10;;;;;;6190882;28;20034;-67
2022/07/27 11:06:02;;;;;;;0.40;0.40;;;23.40;56.10;;;;;;6171368;28;20035;-67
2022/07/27 11:09:03;;;;;;;0.45;0.30;;;23.40;56.10;;;;;;6185677;28;20049;-67
2022/07/27 11:12:07;;;;;;;0.40;0.38;;;23.40;56.10;;;;;;6195634;28;20509;-67
2022/07/27 11:15:08;;;;;;;0.70;0.50;;;23.40;56.10;;;;;;6173419;28;20015;-67
2022/07/27 11:18:09;;;;;;;0.57;0.40;;;23.40;56.10;;;;;;6176957;28;20460;-67
2022/07/27 11:21:18;;;;;;;0.32;0.30;;;23.40;56.10;;;;;;6195767;28;20027;-67
2022/07/27 11:24:18;;;;;;;0.80;0.40;;;23.40;56.10;;;;;;6185409;28;20034;-68
2022/07/27 11:27:19;;;;;;;0.45;0.32;;;23.40;56.20;;;;;;6195792;28;20385;-68
2022/07/27 11:30:22;;;;;;;0.75;0.30;;;23.40;56.10;;;;;;6195012;28;20034;-68
2022/07/27 11:33:23;;;;;;;1.20;0.43;;;23.40;56.40;;;;;;6189962;28;20018;-68
2022/07/27 11:36:36;;;;;;;0.45;0.43;;;23.40;56.30;;;;;;6170781;28;20022;-66
2022/07/27 11:39:36;;;;;;;0.32;0.30;;;23.50;56.50;;;;;;6182108;28;20042;-67
2022/07/27 11:42:38;;;;;;;0.50;0.50;;;23.50;56.20;;;;;;6171448;28;20482;-67
2022/07/27 11:45:40;;;;;;;0.88;0.60;;;23.50;56.10;;;;;;6190492;28;20029;-67
2022/07/27 11:48:54;;;;;;;0.45;0.30;;;23.50;56.20;;;;;;6182720;28;20018;-67
2022/07/27 11:51:57;;;;;;;0.32;0.30;;;23.40;56.10;;;;;;6176960;28;20050;-67
2022/07/27 11:54:57;;;;;;;0.65;0.50;;;23.40;56.20;;;;;;6184720;28;20029;-67
2022/07/27 11:58:03;;;;;;;0.30;0.30;;;23.40;56.20;;;;;;6193855;28;20478;-67
2022/07/27 12:01:03;;;;;;;0.73;0.40;;;23.40;56.20;;;;;;6193953;28;20284;-67
2022/07/27 12:04:17;;;;;;;0.52;0.32;;;23.40;56.20;;;;;;6193276;28;20393;-67
2022/07/27 12:07:36;;;;;;;0.60;0.50;;;23.40;56.20;;;;;;6193397;28;20637;-68
2022/07/27 12:10:37;;;;;;;0.40;0.30;;;23.40;56.20;;;;;;6192276;28;20042;-67
2022/07/27 12:13:37;;;;;;;0.30;0.30;;;23.40;56.20;;;;;;6193396;28;20029;-67
2022/07/27 12:16:39;;;;;;;0.30;0.30;;;23.40;56.20;;;;;;6193143;28;20497;-67
2022/07/27 12:19:41;;;;;;;0.30;0.25;;;23.40;56.10;;;;;;6183621;28;20540;-67
2022/07/27 12:22:52;;;;;;;0.38;0.38;;;23.40;56.10;;;;;;6168611;28;20398;-68
2022/07/27 12:25:53;;;;;;;0.40;0.30;;;23.30;56.10;;;;;;6187284;28;20382;-67
2022/07/27 12:29:07;;;;;;;0.60;0.20;;;23.40;56.20;;;;;;6190973;28;20026;-67
2022/07/27 12:32:08;;;;;;;0.30;0.30;;;23.40;56.10;;;;;;6168759;28;20029;-67
2022/07/27 12:35:22;;;;;;;0.40;0.40;;;23.40;56.10;;;;;;6180232;28;20054;-67
2022/07/27 12:38:23;;;;;;;0.30;0.30;;;23.40;56.10;;;;;;6193056;28;20058;-67
2022/07/27 12:41:26;;;;;;;0.98;0.38;;;23.40;56.10;;;;;;6189589;28;20504;-67
2022/07/27 12:44:35;;;;;;;0.85;0.40;;;23.40;56.10;;;;;;6188413;28;20439;-67
2022/07/27 12:47:41;;;;;;;3.20;0.82;;;23.40;56.10;;;;;;6168453;28;20158;-67
2022/07/27 12:50:47;;;;;;;0.43;0.40;;;23.30;56.10;;;;;;6189760;28;20108;-67
2022/07/27 12:53:47;;;;;;;0.50;0.38;;;23.30;56.10;;;;;;6192554;28;20041;-67
2022/07/27 12:56:48;;;;;;;0.50;0.28;;;23.30;56.10;;;;;;6191488;28;20380;-67
2022/07/27 12:59:49;;;;;;;0.30;0.30;;;23.30;56.10;;;;;;6192699;28;20034;-67
2022/07/27 13:02:50;;;;;;;0.70;0.30;;;23.40;56.20;;;;;;6192185;28;20106;-67
2022/07/27 13:05:50;;;;;;;0.50;0.35;;;23.30;56.10;;;;;;6179101;28;20031;-67
2022/07/27 13:08:51;;;;;;;1.23;0.40;;;23.30;56.10;;;;;;6156828;28;20029;-67
2022/07/27 13:11:52;;;;;;;0.38;0.38;;;23.30;56.00;;;;;;6191581;28;20528;-67
2022/07/27 13:14:53;;;;;;;0.73;0.38;;;23.40;56.00;;;;;;6188522;28;20027;-67
2022/07/27 13:17:54;;;;;;;0.47;0.30;;;23.40;55.90;;;;;;6167880;28;20043;-67
2022/07/27 13:20:54;;;;;;;1.02;0.30;;;23.50;55.90;;;;;;6189172;28;20081;-67
2022/07/27 13:23:55;;;;;;;2.05;0.50;;;23.50;56.30;;;;;;6191308;28;20042;-67
2022/07/27 13:26:56;;;;;;;0.88;0.40;;;23.50;56.60;;;;;;6191092;28;20030;-67
2022/07/27 13:29:58;;;;;;;0.40;0.40;;;23.50;56.50;;;;;;6191602;28;20393;-67
2022/07/27 13:32:59;;;;;;;0.77;0.40;;;23.50;56.70;;;;;;6191507;28;20035;-67
2022/07/27 13:36:00;;;;;;;1.13;0.30;;;23.50;56.60;;;;;;6181344;28;20035;-67
2022/07/27 13:39:01;;;;;;;0.52;0.38;;;23.50;56.10;;;;;;6170379;28;20159;-67
2022/07/27 13:42:02;;;;;;;0.50;0.50;;;23.50;56.30;;;;;;6177479;28;20027;-68
2022/07/27 13:45:05;;;;;;;0.65;0.50;;;23.50;56.30;;;;;;6174312;28;20102;-68
2022/07/27 13:48:06;;;;;;;0.50;0.40;;;23.50;56.30;;;;;;6196222;28;20080;-67
2022/07/27 13:51:06;;;;;;;1.45;0.40;;;23.40;56.20;;;;;;6196268;28;20529;-67
2022/07/27 13:54:07;;;;;;;0.40;0.35;;;23.40;56.20;;;;;;6184856;28;20040;-67
2022/07/27 13:57:08;;;;;;;0.63;0.38;;;23.40;56.40;;;;;;6179019;28;20030;-67
2022/07/27 14:00:09;;;;;;;2.05;0.50;;;23.40;55.90;;;;;;6196800;28;20018;-67
2022/07/27 14:03:09;;;;;;;1.17;0.60;;;23.30;55.80;;;;;;6171841;28;20037;-67
2022/07/27 14:06:10;;;;;;;1.80;0.88;;;23.30;54.90;;;;;;6179802;28;20030;-67
2022/07/27 14:09:11;;;;;;;3.92;0.70;;;23.30;54.00;;;;;;6196155;28;20033;-67
2022/07/27 14:12:12;;;;;;;1.25;0.57;;;23.30;53.00;;;;;;6181387;28;20030;-67
2022/07/27 14:15:13;;;;;;;2.20;0.73;;;23.30;54.40;;;;;;6172145;28;20458;-67
2022/07/27 14:18:14;;;;;;;2.45;1.00;;;23.30;54.10;;;;;;6194504;28;20030;-68
2022/07/27 14:21:14;;;;;;;4.25;0.60;;;23.30;52.70;;;;;;6190046;28;20544;-68
2022/07/27 14:24:15;;;;;;;2.80;0.82;;;23.20;52.90;;;;;;6190185;28;20109;-67
2022/07/27 14:27:15;;;;;;;2.22;0.80;;;23.20;52.70;;;;;;6182393;28;20030;-67
2022/07/27 14:30:16;;;;;;;6.25;1.15;;;23.20;53.10;;;;;;6171978;28;20035;-67
2022/07/27 14:33:17;;;;;;;2.10;0.70;;;23.20;51.70;;;;;;6192331;28;20116;-67
2022/07/27 14:36:18;;;;;;;4.18;1.15;;;23.20;51.40;;;;;;6194680;28;20029;-67
2022/07/27 14:39:19;;;;;;;3.17;1.20;;;23.20;52.80;;;;;;6194487;28;20085;-67
2022/07/27 14:42:21;;;;;;;1.67;0.90;;;23.20;51.90;;;;;;6191257;28;20026;-67
2022/07/27 14:45:22;;;;;;;4.15;1.13;;;23.20;52.60;;;;;;6195596;28;20034;-67
2022/07/27 14:48:23;;;;;;;3.65;1.10;;;23.20;52.50;;;;;;6178723;28;20033;-67
2022/07/27 14:51:23;;;;;;;4.38;1.15;;;23.20;51.70;;;;;;6191806;28;20451;-67
2022/07/27 14:54:24;;;;;;;3.20;1.02;;;23.20;51.90;;;;;;6187008;28;20062;-68
2022/07/27 14:57:26;;;;;;;3.08;1.00;;;23.20;51.20;;;;;;6196035;28;20703;-67
2022/07/27 15:00:28;;;;;;;4.07;1.27;;;23.20;51.60;;;;;;6195625;28;20061;-67
2022/07/27 15:03:29;;;;;;;2.95;0.95;;;23.20;51.20;;;;;;6190741;28;20038;-67
2022/07/27 15:06:29;;;;;;;2.90;1.00;;;23.20;51.40;;;;;;6195187;28;20109;-68
2022/07/27 15:09:30;;;;;;;2.22;0.75;;;23.20;51.80;;;;;;6194918;28;20109;-68
2022/07/27 15:12:30;;;;;;;2.53;0.90;;;23.20;51.30;;;;;;6185797;28;20023;-67
2022/07/27 15:15:31;;;;;;;3.15;0.70;;;23.20;51.10;;;;;;6170626;28;20066;-67
2022/07/27 15:18:32;;;;;;;2.92;1.10;;;23.20;52.60;;;;;;6187803;28;20022;-68
2022/07/27 15:21:33;;;;;;;2.53;1.35;;;23.20;50.90;;;;;;6192984;28;20033;-67
2022/07/27 15:24:34;;;;;;;4.68;2.03;;;23.20;50.70;;;;;;6177310;28;20577;-68
2022/07/27 15:27:34;;;;;;;4.85;1.58;;;23.20;50.90;;;;;;6194832;28;20030;-67
2022/07/27 15:30:35;;;;;;;2.95;1.35;;;23.20;51.70;;;;;;6194228;28;20057;-67
2022/07/27 15:33:36;;;;;;;6.22;1.50;;;23.20;52.70;;;;;;6179389;28;20058;-68
2022/07/27 15:36:37;;;;;;;4.10;1.83;;;23.20;52.60;;;;;;6170408;28;20050;-68
2022/07/27 15:39:38;;;;;;;3.65;2.00;;;23.20;52.90;;;;;;6192501;28;20263;-67
2022/07/27 15:42:39;;;;;;;5.93;2.67;;;23.20;52.30;;;;;;6169719;28;20085;-68
2022/07/27 15:45:42;;;;;;;4.32;2.20;;;23.10;52.40;;;;;;6170274;28;20026;-67
2022/07/27 15:48:43;;;;;;;4.95;2.70;;;23.10;52.70;;;;;;6183585;28;20026;-68
2022/07/27 15:51:43;;;;;;;5.78;2.45;;;23.10;52.50;;;;;;6194271;28;20080;-68
2022/07/27 15:54:46;;;;;;;6.03;2.95;;;23.10;51.90;;;;;;6176013;28;20035;-68